Time;durP1;ratioP1;P1;durP2;ratioP2;P2;SDS_P1;SDS_P2;PMS_P1;PMS_P2;Temp;Humidity;BMP_temperature;BMP_pressure;BME280_temperature;BME280_humidity;BME280_pressure;Samples;Min_cycle;Max_cycle;Signal;HPM_P1;HPM_P2
2023/06/28 00:00:13;;;;;;;7.88;2.03;;;13.80;99.90;;;;;;4975390;28;20410;-93
2023/06/28 00:02:42;;;;;;;10.35;1.77;;;13.80;99.90;;;;;;4990383;28;20180;-95
2023/06/28 00:05:09;;;;;;;6.07;1.65;;;13.80;99.90;;;;;;4970013;28;20216;-95
2023/06/28 00:07:35;;;;;;;4.03;1.50;;;13.70;99.90;;;;;;4975371;28;20176;-96
2023/06/28 00:10:19;;;;;;;5.07;1.90;;;13.80;99.90;;;;;;4991684;28;20184;-96
2023/06/28 00:12:47;;;;;;;5.10;1.80;;;13.70;99.90;;;;;;4987815;28;20287;-92
2023/06/28 00:15:14;;;;;;;7.35;1.70;;;13.70;99.90;;;;;;5102991;23;20302;-92
2023/06/28 00:17:40;;;;;;;6.50;2.05;;;13.70;99.90;;;;;;5011512;28;20183;-94
2023/06/28 00:20:07;;;;;;;6.82;1.77;;;13.60;99.90;;;;;;5010913;28;20234;-95
2023/06/28 00:22:44;;;;;;;6.18;1.70;;;13.70;99.90;;;;;;5028392;28;20206;-92
2023/06/28 00:25:12;;;;;;;5.72;1.80;;;13.60;99.90;;;;;;5018167;28;20247;-94
2023/06/28 00:27:42;;;;;;;5.60;1.75;;;13.60;99.90;;;;;;5015266;28;20199;-93
2023/06/28 00:30:11;;;;;;;5.18;1.60;;;13.50;99.90;;;;;;5016680;28;20186;-91
2023/06/28 00:32:37;;;;;;;4.28;1.80;;;13.60;99.90;;;;;;5747363;23;21481;-82
2023/06/28 00:35:03;;;;;;;5.75;1.70;;;13.50;99.90;;;;;;5041887;28;20217;-82
2023/06/28 00:37:29;;;;;;;9.43;1.70;;;13.40;99.90;;;;;;5053275;28;20252;-83
2023/06/28 00:39:55;;;;;;;3.15;1.67;;;13.40;99.90;;;;;;5053066;28;20675;-82
2023/06/28 00:42:21;;;;;;;4.85;1.33;;;13.40;99.90;;;;;;5053354;28;20174;-83
2023/06/28 00:44:47;;;;;;;4.75;1.63;;;13.40;99.90;;;;;;5051132;28;20174;-83
2023/06/28 00:47:14;;;;;;;6.65;1.75;;;13.40;99.90;;;;;;5053172;28;20166;-83
2023/06/28 00:49:40;;;;;;;5.18;1.60;;;13.40;99.90;;;;;;5055126;28;20550;-84
2023/06/28 00:52:07;;;;;;;5.75;1.55;;;13.30;99.90;;;;;;5051850;28;20261;-83
2023/06/28 00:54:33;;;;;;;5.15;1.42;;;13.30;99.90;;;;;;5071699;28;20176;-83
2023/06/28 00:57:00;;;;;;;4.60;1.60;;;13.30;99.90;;;;;;5072743;28;20584;-82
2023/06/28 00:59:26;;;;;;;4.25;1.50;;;13.30;99.90;;;;;;5052899;28;20193;-83
2023/06/28 01:01:53;;;;;;;6.03;1.52;;;13.30;99.90;;;;;;5051267;28;20190;-83
2023/06/28 01:04:19;;;;;;;7.95;1.67;;;13.20;99.90;;;;;;5051303;28;20181;-84
2023/06/28 01:06:51;;;;;;;4.95;1.42;;;13.20;99.90;;;;;;5050955;28;20182;-82
2023/06/28 01:09:23;;;;;;;8.38;1.90;;;13.20;99.90;;;;;;5052053;28;20174;-85
2023/06/28 01:11:50;;;;;;;6.55;1.35;;;13.20;99.90;;;;;;5051907;28;20718;-83
2023/06/28 01:14:18;;;;;;;5.30;1.33;;;13.20;99.90;;;;;;5069330;28;20565;-84
2023/06/28 01:16:49;;;;;;;5.75;1.55;;;13.20;99.90;;;;;;5050391;28;20189;-84
2023/06/28 01:19:16;;;;;;;3.58;1.35;;;13.10;99.90;;;;;;5051376;28;20264;-83
2023/06/28 01:21:45;;;;;;;5.82;1.48;;;13.10;99.90;;;;;;5072935;28;20174;-83
2023/06/28 01:24:12;;;;;;;5.57;1.52;;;13.10;99.90;;;;;;5051805;28;20178;-83
2023/06/28 01:26:39;;;;;;;4.03;1.20;;;13.10;99.90;;;;;;5071454;28;20329;-84
2023/06/28 01:29:06;;;;;;;6.68;1.33;;;13.10;99.90;;;;;;5073056;28;20177;-83
2023/06/28 01:31:32;;;;;;;4.60;1.65;;;13.10;99.90;;;;;;5051956;28;20178;-83
2023/06/28 01:33:58;;;;;;;4.53;1.40;;;13.00;99.90;;;;;;5049307;28;20229;-83
2023/06/28 01:36:24;;;;;;;8.25;1.73;;;13.10;99.90;;;;;;5049194;28;20185;-83
2023/06/28 01:38:50;;;;;;;2.65;1.45;;;13.00;99.90;;;;;;5051201;28;20262;-83
2023/06/28 01:41:17;;;;;;;7.15;1.38;;;13.00;99.90;;;;;;5051716;28;20260;-83
2023/06/28 01:43:43;;;;;;;4.10;1.60;;;13.00;99.90;;;;;;5075074;28;20192;-83
2023/06/28 01:46:11;;;;;;;4.47;1.30;;;12.90;99.90;;;;;;5074236;28;20177;-84
2023/06/28 01:48:38;;;;;;;5.22;1.50;;;12.90;99.90;;;;;;5076156;28;20181;-84
2023/06/28 01:51:04;;;;;;;2.58;1.30;;;12.80;99.90;;;;;;5075750;28;20181;-84
2023/06/28 01:53:30;;;;;;;3.15;1.42;;;12.80;99.90;;;;;;5076160;28;20258;-84
2023/06/28 01:55:55;;;;;;;2.75;1.27;;;12.80;99.90;;;;;;5054363;28;20186;-85
2023/06/28 01:58:21;;;;;;;3.88;1.40;;;12.80;99.90;;;;;;5073325;28;20650;-83
2023/06/28 02:00:47;;;;;;;4.35;1.55;;;12.70;99.90;;;;;;5076216;28;20184;-84
2023/06/28 02:03:12;;;;;;;2.88;1.48;;;12.70;99.90;;;;;;5075909;28;20181;-84
2023/06/28 02:05:40;;;;;;;6.05;1.50;;;12.80;99.90;;;;;;5075135;28;20181;-85
2023/06/28 02:08:06;;;;;;;3.33;1.73;;;12.70;99.90;;;;;;5075769;28;20172;-84
2023/06/28 02:10:31;;;;;;;6.28;1.70;;;12.70;99.90;;;;;;5076224;28;20173;-84
2023/06/28 02:12:57;;;;;;;4.72;1.40;;;12.70;99.90;;;;;;5054341;28;20213;-83
2023/06/28 02:15:24;;;;;;;4.70;1.80;;;12.70;99.90;;;;;;5054617;28;20212;-85
2023/06/28 02:17:49;;;;;;;12.40;1.90;;;12.70;99.90;;;;;;5054204;28;20190;-84
2023/06/28 02:20:15;;;;;;;6.47;1.80;;;12.70;99.90;;;;;;5054428;28;20182;-84
2023/06/28 02:22:41;;;;;;;6.10;1.73;;;12.70;99.90;;;;;;5057564;28;20191;-84
2023/06/28 02:25:07;;;;;;;5.65;1.75;;;12.70;99.90;;;;;;5054413;28;20645;-84
2023/06/28 02:27:33;;;;;;;7.55;1.90;;;12.60;99.90;;;;;;5074204;28;20189;-84
2023/06/28 02:29:58;;;;;;;7.63;1.67;;;12.60;99.90;;;;;;5054266;28;20493;-84
2023/06/28 02:32:25;;;;;;;7.28;2.00;;;12.70;99.90;;;;;;5072912;28;20258;-84
2023/06/28 02:34:50;;;;;;;6.72;1.67;;;12.70;99.90;;;;;;5075371;28;20313;-85
2023/06/28 02:37:16;;;;;;;5.68;1.58;;;12.60;99.90;;;;;;5074879;28;20272;-84
2023/06/28 02:39:42;;;;;;;2.92;1.58;;;12.60;99.90;;;;;;5075481;28;20181;-84
2023/06/28 02:42:08;;;;;;;11.77;1.92;;;12.60;99.90;;;;;;5075504;28;20208;-83
2023/06/28 02:44:36;;;;;;;3.65;1.83;;;12.60;99.90;;;;;;5055541;28;20524;-84
2023/06/28 02:47:03;;;;;;;8.13;1.90;;;12.60;99.90;;;;;;5074768;28;20193;-85
2023/06/28 02:49:28;;;;;;;5.20;1.80;;;12.60;99.90;;;;;;5054536;28;20185;-84
2023/06/28 02:51:54;;;;;;;6.75;2.00;;;12.60;99.90;;;;;;5075416;28;20176;-85
2023/06/28 02:54:19;;;;;;;9.50;1.98;;;12.60;99.90;;;;;;5073449;28;20184;-84
2023/06/28 02:56:46;;;;;;;5.20;2.00;;;12.60;99.90;;;;;;5051784;28;20194;-84
2023/06/28 02:59:12;;;;;;;5.43;1.73;;;12.60;99.90;;;;;;5053136;28;20190;-85
2023/06/28 03:01:38;;;;;;;3.45;1.95;;;12.60;99.90;;;;;;5073525;28;20207;-84
2023/06/28 03:04:03;;;;;;;4.18;1.95;;;12.60;99.90;;;;;;5052538;28;20181;-83
2023/06/28 03:06:30;;;;;;;8.10;2.20;;;12.60;99.90;;;;;;5035214;28;20282;-86
2023/06/28 03:08:56;;;;;;;5.88;2.28;;;12.60;99.90;;;;;;5033975;28;20612;-86
2023/06/28 03:11:21;;;;;;;8.15;2.22;;;12.60;99.90;;;;;;5034281;28;20190;-85
2023/06/28 03:13:47;;;;;;;4.97;1.73;;;12.60;99.90;;;;;;5062574;28;20215;-84
2023/06/28 03:16:13;;;;;;;5.68;2.10;;;12.60;99.90;;;;;;5074100;28;20690;-85
2023/06/28 03:18:38;;;;;;;7.95;1.85;;;12.60;99.90;;;;;;5074554;28;20226;-86
2023/06/28 03:21:04;;;;;;;6.93;2.33;;;12.60;99.90;;;;;;5074851;28;20700;-85
2023/06/28 03:23:30;;;;;;;6.72;2.00;;;12.60;99.90;;;;;;5055163;28;20694;-85
2023/06/28 03:25:56;;;;;;;4.50;1.80;;;12.60;99.90;;;;;;5052213;28;20209;-85
2023/06/28 03:28:21;;;;;;;3.97;1.80;;;12.70;99.90;;;;;;5053770;28;20177;-84
2023/06/28 03:30:47;;;;;;;6.32;2.28;;;12.70;99.90;;;;;;5053120;28;20193;-84
2023/06/28 03:33:13;;;;;;;6.53;2.30;;;12.70;99.90;;;;;;5052863;28;20542;-84
2023/06/28 03:35:38;;;;;;;8.05;2.08;;;12.70;99.90;;;;;;5055174;28;20817;-85
2023/06/28 03:38:04;;;;;;;7.22;2.20;;;12.70;99.90;;;;;;5052663;28;20225;-85
2023/06/28 03:40:29;;;;;;;9.13;2.53;;;12.70;99.90;;;;;;5072199;28;20478;-84
2023/06/28 03:42:55;;;;;;;6.13;1.90;;;12.80;99.90;;;;;;5053103;28;20181;-87
2023/06/28 03:45:21;;;;;;;5.60;2.08;;;12.80;99.90;;;;;;5052467;28;20268;-84
2023/06/28 03:47:51;;;;;;;11.43;2.58;;;12.80;99.90;;;;;;5052794;28;20251;-84
2023/06/28 03:50:16;;;;;;;6.47;2.20;;;12.80;99.90;;;;;;5070693;28;20169;-84
2023/06/28 03:52:43;;;;;;;6.20;2.40;;;12.80;99.90;;;;;;5055651;28;20254;-86
2023/06/28 03:55:08;;;;;;;5.18;2.22;;;12.90;99.90;;;;;;5052840;28;20267;-85
2023/06/28 03:57:34;;;;;;;4.97;1.92;;;12.90;99.90;;;;;;5054136;28;20647;-85
2023/06/28 04:00:00;;;;;;;7.63;2.30;;;13.00;99.90;;;;;;5074064;28;20226;-85
2023/06/28 04:02:26;;;;;;;5.53;2.33;;;12.90;99.90;;;;;;5053324;28;20643;-85
2023/06/28 04:04:53;;;;;;;7.93;2.20;;;13.00;99.90;;;;;;5051947;28;20235;-86
2023/06/28 04:07:24;;;;;;;9.15;2.88;;;13.00;99.90;;;;;;5069871;28;20185;-87
2023/06/28 04:09:52;;;;;;;7.40;2.67;;;13.00;99.90;;;;;;5052798;28;20180;-86
2023/06/28 04:12:19;;;;;;;7.00;2.63;;;13.00;99.90;;;;;;5070326;28;20219;-85
2023/06/28 04:14:44;;;;;;;8.45;2.38;;;13.10;99.90;;;;;;5047885;28;20185;-85
2023/06/28 04:17:10;;;;;;;7.43;2.88;;;13.10;99.90;;;;;;5055410;28;20239;-86
2023/06/28 04:19:36;;;;;;;9.88;2.92;;;13.10;99.90;;;;;;5055808;28;20212;-85
2023/06/28 04:22:01;;;;;;;7.00;2.65;;;13.10;99.90;;;;;;5052750;28;20301;-85
2023/06/28 04:24:27;;;;;;;10.10;3.17;;;13.20;99.90;;;;;;5053660;28;20623;-86
2023/06/28 04:26:53;;;;;;;7.25;3.03;;;13.20;99.90;;;;;;5051652;28;20185;-86
2023/06/28 04:29:18;;;;;;;5.13;2.75;;;13.20;99.90;;;;;;5052753;28;20201;-86
2023/06/28 04:31:44;;;;;;;10.48;2.65;;;13.30;99.90;;;;;;5052483;28;20572;-85
2023/06/28 04:34:10;;;;;;;8.90;2.95;;;13.30;99.90;;;;;;5051807;28;20239;-85
2023/06/28 04:36:35;;;;;;;10.73;3.10;;;13.40;99.90;;;;;;5047925;28;20529;-85
2023/06/28 04:39:03;;;;;;;9.45;2.63;;;13.50;99.90;;;;;;5052796;28;20227;-85
2023/06/28 04:41:29;;;;;;;11.07;3.33;;;13.60;99.90;;;;;;5072931;28;20173;-87
2023/06/28 04:43:56;;;;;;;8.45;3.00;;;13.70;99.90;;;;;;5073264;28;20177;-85
2023/06/28 04:46:23;;;;;;;6.60;3.17;;;13.80;99.90;;;;;;5073569;28;20173;-84
2023/06/28 04:48:50;;;;;;;6.70;3.22;;;13.90;99.90;;;;;;5072784;28;20193;-84
2023/06/28 04:51:17;;;;;;;9.57;2.97;;;14.10;99.90;;;;;;5052343;28;20260;-84
2023/06/28 04:53:43;;;;;;;11.07;3.10;;;14.20;99.90;;;;;;5051547;28;20239;-85
2023/06/28 04:56:09;;;;;;;8.40;2.97;;;14.30;99.90;;;;;;5068673;28;20227;-84
2023/06/28 04:58:37;;;;;;;7.40;2.90;;;14.40;99.90;;;;;;5071995;28;20177;-85
2023/06/28 05:01:06;;;;;;;11.05;3.20;;;14.50;99.90;;;;;;5063159;28;20185;-85
2023/06/28 05:03:32;;;;;;;7.90;3.10;;;14.60;99.90;;;;;;5053444;28;20515;-85
2023/06/28 05:05:57;;;;;;;9.55;2.60;;;14.70;99.90;;;;;;5042452;28;20190;-84
2023/06/28 05:08:23;;;;;;;7.75;3.00;;;14.70;99.90;;;;;;5033186;28;20651;-84
2023/06/28 05:10:49;;;;;;;14.80;3.45;;;14.80;99.90;;;;;;5051853;28;20184;-86
2023/06/28 05:13:15;;;;;;;15.85;3.25;;;14.80;99.90;;;;;;5048678;28;20229;-85
2023/06/28 05:15:41;;;;;;;11.13;3.38;;;14.90;99.90;;;;;;5063910;28;20190;-85
2023/06/28 05:18:06;;;;;;;9.15;2.90;;;14.90;99.90;;;;;;5074594;28;20193;-85
2023/06/28 05:20:32;;;;;;;9.10;3.20;;;14.90;99.90;;;;;;5056798;28;20597;-86
2023/06/28 05:23:12;;;;;;;8.10;3.15;;;14.90;99.90;;;;;;5035822;28;20193;-86
2023/06/28 05:25:39;;;;;;;10.52;2.90;;;14.90;99.90;;;;;;5038550;28;20236;-84
2023/06/28 05:28:06;;;;;;;8.63;3.30;;;14.90;99.90;;;;;;5035508;28;20189;-85
2023/06/28 05:30:32;;;;;;;6.35;3.03;;;14.90;99.90;;;;;;5036645;28;20675;-85
2023/06/28 05:33:02;;;;;;;10.20;3.30;;;14.90;99.90;;;;;;5051014;28;20324;-85
2023/06/28 05:35:30;;;;;;;10.55;3.42;;;15.00;99.90;;;;;;5057890;28;20242;-85
2023/06/28 05:37:55;;;;;;;9.48;3.22;;;15.00;99.90;;;;;;5058797;28;20187;-85
2023/06/28 05:40:21;;;;;;;9.82;2.90;;;15.00;99.90;;;;;;5075631;28;20512;-86
2023/06/28 05:42:47;;;;;;;12.23;3.38;;;15.10;99.90;;;;;;5076411;28;20192;-86
2023/06/28 05:45:12;;;;;;;10.75;2.97;;;15.10;99.90;;;;;;5056811;28;20620;-85
2023/06/28 05:47:39;;;;;;;9.27;3.10;;;15.20;99.90;;;;;;5075821;28;20184;-86
2023/06/28 05:50:05;;;;;;;8.60;3.30;;;15.20;99.90;;;;;;5057336;28;20227;-84
2023/06/28 05:52:31;;;;;;;8.38;2.85;;;15.20;99.90;;;;;;5073206;28;20201;-83
2023/06/28 05:54:57;;;;;;;8.93;2.88;;;15.30;99.90;;;;;;5068565;28;20197;-83
2023/06/28 05:57:23;;;;;;;11.80;2.92;;;15.30;99.90;;;;;;5038928;28;20182;-85
2023/06/28 05:59:49;;;;;;;10.80;3.17;;;15.40;99.90;;;;;;5056399;28;20666;-84
2023/06/28 06:02:15;;;;;;;14.75;3.60;;;15.30;99.90;;;;;;5038502;28;20182;-82
2023/06/28 06:04:41;;;;;;;11.90;3.33;;;15.40;99.90;;;;;;5075266;28;20185;-84
2023/06/28 06:07:06;;;;;;;9.90;3.13;;;15.40;99.90;;;;;;5058507;28;20173;-87
2023/06/28 06:09:32;;;;;;;10.10;3.33;;;15.40;99.90;;;;;;5076311;28;20173;-85
2023/06/28 06:11:58;;;;;;;9.55;2.90;;;15.50;99.90;;;;;;5076241;28;20173;-86
2023/06/28 06:14:24;;;;;;;9.90;2.95;;;15.50;99.90;;;;;;5075264;28;20180;-84
2023/06/28 06:16:50;;;;;;;9.55;3.25;;;15.60;99.90;;;;;;5058103;28;20230;-83
2023/06/28 06:19:15;;;;;;;10.70;3.08;;;15.60;99.90;;;;;;5075602;28;20173;-84
2023/06/28 06:21:41;;;;;;;9.02;2.72;;;15.70;99.90;;;;;;5058114;28;20180;-84
2023/06/28 06:24:09;;;;;;;10.85;2.60;;;15.80;99.90;;;;;;5049001;28;20191;-84
2023/06/28 06:26:35;;;;;;;6.32;2.30;;;15.80;99.90;;;;;;5056464;28;20189;-83
2023/06/28 06:29:02;;;;;;;11.13;2.70;;;15.80;99.90;;;;;;5057101;28;20177;-83
2023/06/28 06:31:28;;;;;;;6.18;2.35;;;15.80;99.90;;;;;;5056128;28;20619;-84
2023/06/28 06:34:00;;;;;;;9.82;2.67;;;15.90;99.90;;;;;;5043378;28;20281;-84
2023/06/28 06:36:26;;;;;;;9.00;3.03;;;15.90;99.90;;;;;;5072097;28;20272;-85
2023/06/28 06:38:51;;;;;;;7.85;2.90;;;15.90;99.90;;;;;;5057697;28;20534;-84
2023/06/28 06:41:17;;;;;;;9.98;2.15;;;15.90;99.90;;;;;;5057590;28;20169;-84
2023/06/28 06:43:43;;;;;;;14.93;3.13;;;15.90;99.90;;;;;;5073817;28;20189;-84
2023/06/28 06:46:08;;;;;;;7.63;2.45;;;15.90;99.90;;;;;;5056652;28;20196;-84
2023/06/28 06:48:34;;;;;;;7.25;2.13;;;15.90;99.90;;;;;;5057433;28;20224;-84
2023/06/28 06:51:00;;;;;;;8.77;2.40;;;16.10;99.90;;;;;;5057287;28;20593;-83
2023/06/28 06:53:25;;;;;;;10.02;2.67;;;16.10;99.90;;;;;;5055256;28;20217;-83
2023/06/28 06:55:51;;;;;;;11.82;2.42;;;16.10;99.90;;;;;;5056695;28;20216;-84
2023/06/28 06:58:17;;;;;;;7.32;2.30;;;16.30;99.90;;;;;;5057070;28;20196;-83
2023/06/28 07:00:42;;;;;;;5.72;2.20;;;16.30;99.90;;;;;;5075100;28;20170;-84
2023/06/28 07:03:08;;;;;;;7.78;2.50;;;16.40;99.90;;;;;;5056175;28;20327;-84
2023/06/28 07:05:34;;;;;;;7.80;2.28;;;16.50;99.90;;;;;;5056172;28;20228;-84
2023/06/28 07:08:02;;;;;;;7.13;2.08;;;16.80;99.90;;;;;;5075161;28;20169;-84
2023/06/28 07:10:27;;;;;;;4.82;1.70;;;17.00;99.90;;;;;;5074872;28;20682;-84
2023/06/28 07:12:53;;;;;;;7.53;2.17;;;17.00;99.90;;;;;;5073638;28;20210;-84
2023/06/28 07:15:19;;;;;;;7.18;2.10;;;17.20;99.90;;;;;;5073976;28;20185;-83
2023/06/28 07:17:44;;;;;;;8.85;2.00;;;17.30;99.90;;;;;;5057356;28;20580;-85
2023/06/28 07:20:10;;;;;;;7.40;1.88;;;17.50;99.90;;;;;;5057227;28;20256;-85
2023/06/28 07:22:36;;;;;;;6.20;1.75;;;17.70;99.90;;;;;;5074635;28;20227;-85
2023/06/28 07:25:03;;;;;;;5.88;2.00;;;17.80;99.90;;;;;;5055763;28;20199;-86
2023/06/28 07:27:29;;;;;;;7.20;1.70;;;17.80;99.90;;;;;;5055365;28;20251;-88
2023/06/28 07:29:56;;;;;;;7.35;1.77;;;17.90;99.90;;;;;;5056965;28;20513;-88
2023/06/28 07:32:21;;;;;;;7.32;1.63;;;18.00;99.90;;;;;;5057404;28;20208;-92
2023/06/28 07:34:48;;;;;;;8.20;2.15;;;17.90;99.90;;;;;;5057000;28;20233;-90
2023/06/28 07:37:14;;;;;;;8.40;1.80;;;18.10;99.90;;;;;;5075749;28;20179;-91
2023/06/28 07:39:40;;;;;;;6.25;1.83;;;18.20;99.90;;;;;;5057098;28;20177;-90
2023/06/28 07:42:06;;;;;;;5.47;1.75;;;18.40;99.90;;;;;;5058049;28;20562;-92
2023/06/28 07:44:32;;;;;;;6.72;1.75;;;18.10;99.90;;;;;;5057818;28;20890;-91
2023/06/28 07:46:57;;;;;;;5.97;1.77;;;18.20;99.90;;;;;;5075551;28;20204;-93
2023/06/28 07:49:26;;;;;;;4.80;1.77;;;18.30;99.90;;;;;;5057458;28;20180;-91
2023/06/28 07:51:53;;;;;;;5.88;1.70;;;18.50;99.90;;;;;;5057822;28;20180;-89
2023/06/28 07:54:19;;;;;;;5.05;1.70;;;18.60;99.90;;;;;;5057413;28;20232;-89
2023/06/28 07:56:44;;;;;;;7.53;1.77;;;18.70;99.90;;;;;;5075441;28;20209;-91
2023/06/28 07:59:12;;;;;;;5.22;1.67;;;18.90;99.90;;;;;;5057422;28;20181;-88
2023/06/28 08:01:38;;;;;;;5.25;1.67;;;19.10;99.90;;;;;;5057416;28;20212;-89
2023/06/28 08:04:03;;;;;;;4.95;1.30;;;19.20;99.90;;;;;;5056909;28;20204;-90
2023/06/28 08:06:29;;;;;;;6.43;1.50;;;19.10;99.90;;;;;;5057396;28;20177;-89
2023/06/28 08:08:55;;;;;;;7.13;2.00;;;18.90;99.90;;;;;;5057440;28;20177;-88
2023/06/28 08:11:21;;;;;;;4.43;1.80;;;18.90;99.90;;;;;;5075203;28;20161;-90
2023/06/28 08:13:46;;;;;;;6.70;1.92;;;19.00;99.90;;;;;;5075193;28;20208;-89
2023/06/28 08:16:13;;;;;;;4.55;1.48;;;19.20;99.90;;;;;;5075101;28;20227;-89
2023/06/28 08:18:39;;;;;;;5.80;1.38;;;19.40;99.90;;;;;;5056853;28;20185;-89
2023/06/28 08:21:05;;;;;;;4.50;1.48;;;19.50;99.90;;;;;;5057018;28;20260;-88
2023/06/28 08:23:30;;;;;;;3.25;1.20;;;19.50;99.90;;;;;;5056911;28;20224;-87
2023/06/28 08:25:56;;;;;;;4.88;1.10;;;19.70;99.90;;;;;;5056899;28;20181;-89
2023/06/28 08:28:22;;;;;;;5.75;1.30;;;19.70;99.90;;;;;;5057008;28;20515;-87
2023/06/28 08:30:47;;;;;;;11.13;1.70;;;19.80;99.90;;;;;;5057037;28;20562;-88
2023/06/28 08:33:13;;;;;;;5.65;1.58;;;19.80;99.90;;;;;;5074449;28;20229;-89
2023/06/28 08:35:39;;;;;;;5.55;1.30;;;19.70;99.90;;;;;;5056444;28;20193;-88
2023/06/28 08:38:04;;;;;;;6.25;1.52;;;19.70;99.90;;;;;;5056491;28;20195;-89
2023/06/28 08:40:30;;;;;;;5.15;1.65;;;19.80;99.90;;;;;;5056990;28;20488;-88
2023/06/28 08:43:03;;;;;;;2.97;1.23;;;19.90;99.90;;;;;;5074394;28;20173;-88
2023/06/28 08:45:34;;;;;;;3.33;1.10;;;20.00;99.90;;;;;;5056261;28;20173;-88
2023/06/28 08:48:01;;;;;;;4.82;1.50;;;20.00;99.90;;;;;;5056366;28;20204;-87
2023/06/28 08:50:27;;;;;;;5.35;1.45;;;19.80;99.90;;;;;;5073943;28;20173;-90
2023/06/28 08:52:53;;;;;;;5.65;1.42;;;19.70;99.90;;;;;;5060375;28;20221;-89
2023/06/28 08:55:21;;;;;;;4.55;1.17;;;19.60;99.90;;;;;;5078631;28;20519;-87
2023/06/28 08:57:47;;;;;;;4.47;1.35;;;19.70;99.90;;;;;;5060913;28;20200;-88
2023/06/28 09:00:14;;;;;;;6.40;1.60;;;19.90;99.90;;;;;;5078676;28;20181;-90
2023/06/28 09:02:43;;;;;;;4.70;1.60;;;20.10;99.90;;;;;;5078835;28;20150;-90
2023/06/28 09:05:10;;;;;;;4.45;1.40;;;20.40;99.90;;;;;;5061183;28;20181;-93
2023/06/28 09:07:40;;;;;;;6.10;1.58;;;20.30;99.90;;;;;;5078637;28;20208;-90
2023/06/28 09:10:12;;;;;;;3.97;1.40;;;20.20;99.90;;;;;;5060743;28;20181;-90
2023/06/28 09:12:38;;;;;;;6.97;1.20;;;20.40;99.90;;;;;;5060823;28;20292;-90
2023/06/28 09:15:04;;;;;;;3.92;1.15;;;20.50;99.90;;;;;;5060713;28;20181;-89
2023/06/28 09:17:30;;;;;;;6.85;1.48;;;20.60;99.90;;;;;;5060813;28;20197;-93
2023/06/28 09:20:21;;;;;;;5.38;1.65;;;20.60;99.90;;;;;;5061450;28;20181;-94
2023/06/28 09:22:58;;;;;;;7.70;1.85;;;20.60;99.90;;;;;;5060606;28;20173;-91
2023/06/28 09:25:29;;;;;;;4.88;1.13;;;20.60;99.90;;;;;;5060529;28;20169;-93
2023/06/28 09:27:56;;;;;;;4.03;1.48;;;20.40;99.90;;;;;;5060698;28;20177;-95
2023/06/28 09:30:24;;;;;;;6.93;1.27;;;20.50;99.90;;;;;;5078077;28;20596;-92
2023/06/28 09:32:51;;;;;;;7.65;1.77;;;20.60;99.90;;;;;;5059987;28;20602;-91
2023/06/28 09:35:23;;;;;;;3.67;1.20;;;20.80;99.90;;;;;;5060421;28;20239;-92
2023/06/28 09:37:54;;;;;;;5.20;1.50;;;21.10;99.90;;;;;;5060250;28;20621;-90
2023/06/28 09:40:32;;;;;;;5.25;1.20;;;21.10;99.90;;;;;;5060101;28;20184;-91
2023/06/28 09:42:57;;;;;;;4.70;1.15;;;21.40;99.90;;;;;;5060348;28;20170;-91
2023/06/28 09:45:28;;;;;;;3.30;1.02;;;21.30;99.90;;;;;;5060198;28;20260;-89
2023/06/28 09:47:56;;;;;;;7.82;1.48;;;21.00;99.90;;;;;;5060232;28;20177;-92
2023/06/28 09:50:45;;;;;;;4.65;1.30;;;20.70;99.90;;;;;;5060356;28;20254;-89
2023/06/28 09:53:19;;;;;;;4.00;1.23;;;20.80;99.90;;;;;;5059759;28;20643;-95
2023/06/28 09:55:47;;;;;;;5.00;1.48;;;21.00;99.90;;;;;;5060454;28;20226;-89
2023/06/28 09:58:20;;;;;;;8.02;1.33;;;21.40;99.90;;;;;;5064386;28;20173;-94
2023/06/28 10:00:49;;;;;;;9.68;2.00;;;21.50;99.90;;;;;;5061629;28;20272;-95
2023/06/28 10:03:17;;;;;;;4.78;1.50;;;21.50;99.90;;;;;;5077454;28;20168;-90
2023/06/28 10:05:44;;;;;;;4.28;1.40;;;21.30;99.90;;;;;;5059987;28;20181;-90
2023/06/28 10:08:15;;;;;;;4.30;1.25;;;21.40;99.90;;;;;;5060709;28;20173;-96
2023/06/28 10:10:44;;;;;;;5.72;1.40;;;21.50;99.90;;;;;;5062364;28;20260;-93
2023/06/28 10:13:13;;;;;;;4.13;1.25;;;21.70;99.90;;;;;;5062997;28;20197;-91
2023/06/28 10:15:58;;;;;;;3.60;1.15;;;21.70;99.90;;;;;;5061731;28;20639;-89
2023/06/28 10:18:24;;;;;;;5.00;1.77;;;21.70;99.90;;;;;;5059731;28;20177;-95
2023/06/28 10:20:59;;;;;;;4.03;1.10;;;21.90;99.90;;;;;;5059223;28;20208;-93
2023/06/28 10:23:35;;;;;;;3.58;1.27;;;22.00;99.90;;;;;;5079037;28;20211;-96
2023/06/28 10:26:05;;;;;;;4.00;1.20;;;22.10;99.90;;;;;;5066597;28;20165;-95
2023/06/28 10:28:34;;;;;;;2.47;1.13;;;22.20;98.80;;;;;;5067645;28;20184;-96
2023/06/28 10:31:10;;;;;;;5.65;1.30;;;22.30;99.00;;;;;;5066394;28;20187;-96
2023/06/28 10:33:37;;;;;;;5.80;1.20;;;22.20;98.50;;;;;;5081852;28;20277;-96
2023/06/28 10:36:07;;;;;;;4.63;1.60;;;21.90;98.70;;;;;;5045258;28;20177;-96
2023/06/28 10:38:37;;;;;;;2.63;1.10;;;21.80;99.90;;;;;;5064323;28;20657;-94
2023/06/28 10:41:06;;;;;;;8.18;1.50;;;21.90;99.00;;;;;;5086326;23;20246;-94
2023/06/28 10:43:32;;;;;;;3.53;1.30;;;22.10;99.50;;;;;;5059580;28;20175;-96
2023/06/28 10:45:59;;;;;;;4.05;1.40;;;22.30;99.00;;;;;;5043117;28;20178;-95
2023/06/28 10:48:27;;;;;;;4.88;1.30;;;22.30;98.20;;;;;;5044420;28;20176;-94
2023/06/28 10:50:58;;;;;;;4.20;1.20;;;22.20;99.80;;;;;;5042117;28;20174;-94
2023/06/28 10:53:26;;;;;;;2.97;1.30;;;22.10;99.90;;;;;;5044302;28;20216;-93
2023/06/28 10:56:05;;;;;;;4.88;1.40;;;22.30;99.10;;;;;;5042716;28;20196;-93
2023/06/28 10:58:44;;;;;;;4.55;1.08;;;22.50;99.90;;;;;;5042860;28;20177;-94
2023/06/28 11:01:12;;;;;;;3.75;1.20;;;22.60;99.90;;;;;;5041871;28;20177;-95
2023/06/28 11:03:43;;;;;;;5.05;1.30;;;22.80;99.90;;;;;;5042130;28;20272;-94
2023/06/28 11:06:14;;;;;;;4.97;1.50;;;22.90;99.10;;;;;;5043547;28;20182;-93
2023/06/28 11:08:40;;;;;;;3.63;1.23;;;22.90;97.80;;;;;;5043871;28;20178;-94
2023/06/28 11:11:08;;;;;;;6.57;1.38;;;23.00;99.40;;;;;;5045217;28;20174;-94
2023/06/28 11:13:41;;;;;;;3.17;1.20;;;23.00;99.60;;;;;;5046515;28;20205;-95
2023/06/28 11:16:12;;;;;;;4.03;1.20;;;23.00;96.70;;;;;;5047282;28;20198;-94
2023/06/28 11:18:38;;;;;;;3.50;1.10;;;23.20;98.80;;;;;;5044324;28;20166;-94
2023/06/28 11:21:05;;;;;;;5.50;1.40;;;23.30;99.90;;;;;;5044365;28;20172;-96
2023/06/28 11:23:40;;;;;;;4.25;1.38;;;23.30;95.10;;;;;;5046381;28;20169;-94
2023/06/28 11:26:29;;;;;;;5.55;1.45;;;23.40;96.90;;;;;;5046905;28;20180;-95
2023/06/28 11:28:55;;;;;;;4.65;1.20;;;23.30;95.50;;;;;;5046529;28;20178;-94
2023/06/28 11:31:41;;;;;;;5.80;1.27;;;23.10;97.40;;;;;;5044209;28;20265;-94
2023/06/28 11:34:10;;;;;;;3.67;1.20;;;23.10;97.40;;;;;;5045847;28;20758;-96
2023/06/28 11:36:36;;;;;;;3.13;1.25;;;23.10;97.10;;;;;;5046351;28;20170;-94
2023/06/28 11:39:06;;;;;;;3.30;1.17;;;22.90;98.10;;;;;;5043626;28;20221;-96
2023/06/28 11:41:37;;;;;;;3.70;1.23;;;22.70;98.60;;;;;;5044715;28;20248;-93
2023/06/28 11:44:05;;;;;;;4.05;1.25;;;23.00;97.60;;;;;;5045879;28;20217;-94
2023/06/28 11:46:33;;;;;;;3.83;1.40;;;23.10;98.50;;;;;;5046099;28;20235;-95
2023/06/28 11:49:00;;;;;;;3.38;1.10;;;23.40;97.60;;;;;;5046583;28;20267;-93
2023/06/28 11:51:27;;;;;;;4.97;1.17;;;23.10;97.10;;;;;;5045834;28;20167;-94
2023/06/28 11:53:56;;;;;;;4.10;1.40;;;22.70;96.40;;;;;;5046656;28;20224;-93
2023/06/28 11:56:44;;;;;;;2.95;0.90;;;22.30;96.20;;;;;;5047578;28;20178;-95
2023/06/28 11:59:22;;;;;;;5.38;1.33;;;22.20;95.60;;;;;;5045711;28;20162;-95
2023/06/28 12:02:05;;;;;;;3.05;1.25;;;22.10;97.20;;;;;;5047580;28;20170;-94
2023/06/28 12:04:32;;;;;;;3.92;0.98;;;22.00;97.90;;;;;;5048758;28;20196;-94
2023/06/28 12:07:01;;;;;;;3.85;1.27;;;22.10;97.60;;;;;;5048810;28;20166;-96
2023/06/28 12:09:29;;;;;;;3.28;1.08;;;22.20;98.00;;;;;;5048515;28;20193;-95
2023/06/28 12:12:00;;;;;;;5.30;1.25;;;21.90;95.70;;;;;;5048458;28;20253;-94
2023/06/28 12:14:27;;;;;;;5.10;1.35;;;21.90;96.80;;;;;;5049046;28;20625;-94
2023/06/28 12:17:03;;;;;;;2.90;1.15;;;21.90;96.40;;;;;;5048803;28;20174;-94
2023/06/28 12:19:33;;;;;;;3.53;1.33;;;21.90;97.30;;;;;;5048791;28;20184;-94
2023/06/28 12:22:04;;;;;;;2.60;1.20;;;21.80;97.10;;;;;;5049216;28;20265;-94
2023/06/28 12:24:31;;;;;;;4.43;1.20;;;21.80;96.30;;;;;;5049704;28;20198;-93
2023/06/28 12:26:58;;;;;;;7.13;1.27;;;21.70;98.60;;;;;;5048909;28;20257;-94
2023/06/28 12:29:29;;;;;;;3.17;1.08;;;21.50;97.60;;;;;;5048368;28;20170;-95
2023/06/28 12:32:02;;;;;;;3.92;1.40;;;21.50;98.40;;;;;;5032825;28;20182;-95
2023/06/28 12:34:34;;;;;;;3.97;1.08;;;21.40;98.80;;;;;;5049019;28;20209;-95
2023/06/28 12:37:11;;;;;;;1.85;0.90;;;21.50;97.60;;;;;;5048537;28;20170;-94
2023/06/28 12:39:38;;;;;;;2.83;1.00;;;21.80;99.30;;;;;;5050487;28;20170;-96
2023/06/28 12:42:11;;;;;;;4.15;1.20;;;22.10;97.90;;;;;;5032367;28;20214;-96
2023/06/28 12:44:54;;;;;;;5.43;1.10;;;22.20;98.10;;;;;;5032140;28;20205;-95
2023/06/28 12:47:33;;;;;;;3.83;1.25;;;22.20;97.00;;;;;;5029937;28;20182;-96